Time;durP1;ratioP1;P1;durP2;ratioP2;P2;SDS_P1;SDS_P2;PMS_P1;PMS_P2;Temp;Humidity;BMP_temperature;BMP_pressure;BME280_temperature;BME280_humidity;BME280_pressure;Samples;Min_cycle;Max_cycle;Signal;HPM_P1;HPM_P2
2023/03/09 00:01:44;;;;;;;14.30;13.50;;;;;;;;;;4995942;28;20121;-51
2023/03/09 00:04:13;;;;;;;14.52;13.68;;;;;;;;;;4997149;28;20738;-51
2023/03/09 00:06:39;;;;;;;15.05;14.18;;;;;;;;;;4996420;28;20046;-48
2023/03/09 00:09:05;;;;;;;15.27;14.38;;;;;;;;;;4995812;28;20052;-50
2023/03/09 00:11:31;;;;;;;16.45;15.45;;;;;;;;;;4996865;28;20034;-53
2023/03/09 00:13:56;;;;;;;15.43;14.55;;;;;;;;;;4993442;28;20422;-51
2023/03/09 00:16:24;;;;;;;15.45;14.55;;;;;;;;;;4994414;28;20026;-53
2023/03/09 00:18:51;;;;;;;15.48;14.57;;;;;;;;;;4992093;28;20038;-49
2023/03/09 00:24:04;;;;;;;15.65;14.75;;;;;;;;;;4992652;28;20057;-51
2023/03/09 00:26:30;;;;;;;16.77;15.77;;;;;;;;;;4996642;28;20042;-52
2023/03/09 00:28:55;;;;;;;15.70;14.80;;;;;;;;;;4992237;28;20502;-51
2023/03/09 00:31:21;;;;;;;15.73;14.82;;;;;;;;;;4995168;28;20034;-52
2023/03/09 00:33:47;;;;;;;16.58;15.68;;;;;;;;;;4999773;28;20096;-51
2023/03/09 00:36:14;;;;;;;16.20;15.30;;;;;;;;;;4997741;28;20030;-52
2023/03/09 00:38:39;;;;;;;14.95;14.10;;;;;;;;;;4994029;28;20519;-51
2023/03/09 00:41:05;;;;;;;14.95;14.13;;;;;;;;;;4996085;28;20044;-52
2023/03/09 00:43:30;;;;;;;15.43;14.55;;;;;;;;;;4996455;28;20037;-54
2023/03/09 00:45:55;;;;;;;15.13;14.25;;;;;;;;;;4997692;28;20047;-51
2023/03/09 00:48:21;;;;;;;16.15;15.25;;;;;;;;;;4997362;28;20126;-50
2023/03/09 00:50:46;;;;;;;17.08;15.80;;;;;;;;;;4994346;28;20041;-54
2023/03/09 00:53:11;;;;;;;16.05;15.15;;;;;;;;;;4998578;28;20034;-50
2023/03/09 00:55:36;;;;;;;16.60;15.70;;;;;;;;;;4994394;28;20035;-50
2023/03/09 00:58:02;;;;;;;15.05;14.20;;;;;;;;;;4997004;28;20038;-52
2023/03/09 01:00:27;;;;;;;16.80;15.80;;;;;;;;;;4997611;28;20472;-50
2023/03/09 01:02:53;;;;;;;15.35;14.45;;;;;;;;;;4995222;28;20038;-52
2023/03/09 01:05:19;;;;;;;16.67;15.77;;;;;;;;;;4995220;28;20044;-53
2023/03/09 01:07:45;;;;;;;16.27;15.38;;;;;;;;;;4994784;28;20038;-51
2023/03/09 01:10:11;;;;;;;15.05;14.15;;;;;;;;;;5024265;28;20029;-50
2023/03/09 01:12:37;;;;;;;14.55;13.68;;;;;;;;;;4996679;28;20385;-52
2023/03/09 01:15:04;;;;;;;14.27;13.48;;;;;;;;;;4991271;28;20037;-53
2023/03/09 01:17:29;;;;;;;15.23;14.32;;;;;;;;;;4992620;28;20042;-50
2023/03/09 01:19:54;;;;;;;15.20;14.35;;;;;;;;;;4995822;28;20566;-52
2023/03/09 01:22:20;;;;;;;14.05;13.25;;;;;;;;;;4993977;28;20121;-52
2023/03/09 01:24:45;;;;;;;15.75;14.85;;;;;;;;;;4996009;28;20034;-53
2023/03/09 01:27:11;;;;;;;16.17;15.27;;;;;;;;;;4995815;28;20414;-50
2023/03/09 01:29:36;;;;;;;14.85;14.05;;;;;;;;;;4998093;28;20438;-52
2023/03/09 01:32:01;;;;;;;16.38;15.38;;;;;;;;;;4995719;28;20031;-52
2023/03/09 01:34:27;;;;;;;14.38;13.57;;;;;;;;;;4994611;28;20038;-52
2023/03/09 01:36:52;;;;;;;14.98;14.15;;;;;;;;;;4995281;28;20044;-50
2023/03/09 01:39:18;;;;;;;14.75;13.18;;;;;;;;;;4994337;28;20038;-50
2023/03/09 01:41:43;;;;;;;14.75;13.93;;;;;;;;;;4997018;28;20111;-52
2023/03/09 01:44:11;;;;;;;14.73;13.93;;;;;;;;;;5001097;28;20167;-49
2023/03/09 01:46:55;;;;;;;13.80;13.00;;;;;;;;;;4995442;28;20053;-53
2023/03/09 01:49:44;;;;;;;12.93;12.18;;;;;;;;;;4991796;28;20064;-49
2023/03/09 01:52:24;;;;;;;12.80;12.10;;;;;;;;;;4988055;28;20085;-52
2023/03/09 01:54:52;;;;;;;12.55;11.85;;;;;;;;;;4990215;28;20022;-52
2023/03/09 01:57:34;;;;;;;13.90;13.10;;;;;;;;;;4991521;28;20097;-52
2023/03/09 02:00:26;;;;;;;14.15;13.15;;;;;;;;;;4994995;28;20156;-51
2023/03/09 02:02:56;;;;;;;13.32;12.55;;;;;;;;;;4973028;28;20038;-52
2023/03/09 02:05:29;;;;;;;13.23;12.48;;;;;;;;;;4994721;28;20038;-54
2023/03/09 02:07:56;;;;;;;12.98;12.25;;;;;;;;;;4989375;28;20021;-52
2023/03/09 02:10:25;;;;;;;12.80;12.00;;;;;;;;;;4992507;28;20031;-50
2023/03/09 02:12:54;;;;;;;11.90;11.20;;;;;;;;;;4995291;28;20299;-49
2023/03/09 02:15:20;;;;;;;13.18;12.38;;;;;;;;;;4990939;28;20617;-53
2023/03/09 02:17:47;;;;;;;13.50;12.70;;;;;;;;;;4998109;28;20026;-50
2023/03/09 02:20:21;;;;;;;12.90;12.15;;;;;;;;;;4992904;28;20030;-50
2023/03/09 02:22:48;;;;;;;12.55;11.85;;;;;;;;;;4992069;28;20049;-52
2023/03/09 02:25:48;;;;;;;12.68;11.98;;;;;;;;;;4994453;28;20030;-53
2023/03/09 02:28:14;;;;;;;12.85;12.05;;;;;;;;;;4938692;28;20027;-52
2023/03/09 02:30:42;;;;;;;11.85;11.15;;;;;;;;;;4983738;28;20125;-49
2023/03/09 02:33:25;;;;;;;12.38;11.68;;;;;;;;;;4995597;28;21039;-49
2023/03/09 02:35:51;;;;;;;12.52;11.82;;;;;;;;;;4993049;28;20732;-50
2023/03/09 02:38:17;;;;;;;13.25;12.45;;;;;;;;;;4994618;28;20083;-51
2023/03/09 02:40:42;;;;;;;12.45;11.75;;;;;;;;;;4997032;28;20035;-51
2023/03/09 02:43:08;;;;;;;12.15;11.45;;;;;;;;;;4995988;28;20065;-51
2023/03/09 02:45:34;;;;;;;12.30;11.60;;;;;;;;;;4993643;28;20389;-50
2023/03/09 02:47:59;;;;;;;11.90;11.20;;;;;;;;;;4992332;28;20034;-53
2023/03/09 02:50:25;;;;;;;11.98;11.27;;;;;;;;;;4993907;28;20038;-53
2023/03/09 02:52:51;;;;;;;12.20;11.50;;;;;;;;;;4991887;28;20035;-53
2023/03/09 02:55:17;;;;;;;11.77;11.07;;;;;;;;;;4994762;28;20127;-51
2023/03/09 02:57:43;;;;;;;10.98;10.27;;;;;;;;;;4992765;28;20166;-49
2023/03/09 03:00:12;;;;;;;11.82;11.13;;;;;;;;;;5006894;28;20227;-50
2023/03/09 03:02:38;;;;;;;11.15;10.45;;;;;;;;;;4993098;28;20529;-53
2023/03/09 03:05:05;;;;;;;11.90;11.20;;;;;;;;;;4993233;28;20341;-54
2023/03/09 03:07:30;;;;;;;11.73;11.02;;;;;;;;;;5009941;28;20119;-54
2023/03/09 03:09:56;;;;;;;11.13;10.43;;;;;;;;;;4996708;28;20630;-53
2023/03/09 03:12:21;;;;;;;12.23;11.52;;;;;;;;;;4991999;28;20041;-53
2023/03/09 03:14:46;;;;;;;11.68;10.98;;;;;;;;;;4995930;28;20041;-52
2023/03/09 03:17:12;;;;;;;11.85;11.15;;;;;;;;;;4993828;28;20064;-49
2023/03/09 03:19:37;;;;;;;11.77;11.07;;;;;;;;;;4993915;28;20053;-50
2023/03/09 03:22:03;;;;;;;12.43;11.73;;;;;;;;;;4993275;28;20038;-51
2023/03/09 03:24:29;;;;;;;11.70;11.00;;;;;;;;;;4993790;28;20065;-53
2023/03/09 03:26:54;;;;;;;12.90;12.18;;;;;;;;;;4989385;28;20050;-52
2023/03/09 03:29:20;;;;;;;11.85;11.15;;;;;;;;;;4990603;28;20080;-49
2023/03/09 03:31:45;;;;;;;11.77;11.07;;;;;;;;;;4993248;28;20610;-51
2023/03/09 03:34:11;;;;;;;11.75;11.05;;;;;;;;;;4991340;28;20045;-49
2023/03/09 03:36:36;;;;;;;11.60;10.90;;;;;;;;;;5008604;28;20096;-48
2023/03/09 03:39:03;;;;;;;11.60;10.90;;;;;;;;;;4994972;28;20212;-49
2023/03/09 03:41:28;;;;;;;11.68;10.98;;;;;;;;;;4993075;28;20126;-52
2023/03/09 03:43:53;;;;;;;12.38;11.68;;;;;;;;;;4990562;28;20121;-50
2023/03/09 03:46:19;;;;;;;12.00;11.30;;;;;;;;;;4992058;28;20034;-49
2023/03/09 03:48:44;;;;;;;12.35;11.65;;;;;;;;;;4994345;28;20647;-48
2023/03/09 03:51:10;;;;;;;11.77;11.07;;;;;;;;;;4993472;28;20092;-51
2023/03/09 03:53:35;;;;;;;13.10;12.35;;;;;;;;;;4995351;28;20111;-53
2023/03/09 03:56:02;;;;;;;11.63;10.93;;;;;;;;;;4994448;28;20049;-54
2023/03/09 03:58:28;;;;;;;12.90;12.18;;;;;;;;;;4990283;28;20092;-53
2023/03/09 04:00:53;;;;;;;12.73;11.93;;;;;;;;;;4989555;28;20034;-52
2023/03/09 04:03:19;;;;;;;12.25;11.55;;;;;;;;;;4995357;28;20029;-53
2023/03/09 04:05:45;;;;;;;11.10;10.40;;;;;;;;;;4996605;28;20034;-53
2023/03/09 04:08:11;;;;;;;12.05;11.35;;;;;;;;;;4995045;28;20113;-53
2023/03/09 04:10:40;;;;;;;12.05;11.35;;;;;;;;;;4994995;28;20124;-54
2023/03/09 04:13:05;;;;;;;10.68;10.05;;;;;;;;;;4997264;28;20065;-55
2023/03/09 04:15:33;;;;;;;12.20;11.50;;;;;;;;;;4998115;28;20069;-54
2023/03/09 04:17:59;;;;;;;11.43;10.73;;;;;;;;;;4996366;28;20762;-54
2023/03/09 04:20:25;;;;;;;12.05;11.35;;;;;;;;;;4997178;28;20135;-54
2023/03/09 04:22:50;;;;;;;12.48;11.57;;;;;;;;;;4996015;28;20146;-51
2023/03/09 04:25:16;;;;;;;11.68;10.98;;;;;;;;;;4997009;28;20044;-53
2023/03/09 04:27:42;;;;;;;12.73;11.70;;;;;;;;;;4995461;28;20033;-54
2023/03/09 04:30:08;;;;;;;12.63;11.93;;;;;;;;;;4994927;28;20447;-54
2023/03/09 04:32:34;;;;;;;11.27;10.57;;;;;;;;;;4996233;28;20026;-52
2023/03/09 04:34:59;;;;;;;11.38;10.68;;;;;;;;;;4995454;28;20172;-54
2023/03/09 04:37:24;;;;;;;12.30;11.60;;;;;;;;;;4995331;28;20034;-53
2023/03/09 04:39:50;;;;;;;11.27;10.57;;;;;;;;;;4995369;28;20049;-53
2023/03/09 04:42:15;;;;;;;12.15;11.45;;;;;;;;;;4994391;28;20524;-51
2023/03/09 04:44:40;;;;;;;11.95;11.25;;;;;;;;;;4996880;28;20062;-54
2023/03/09 04:47:06;;;;;;;11.88;11.18;;;;;;;;;;4994428;28;20590;-54
2023/03/09 04:49:32;;;;;;;11.70;11.00;;;;;;;;;;4997444;28;20045;-51
2023/03/09 04:51:57;;;;;;;13.60;12.70;;;;;;;;;;4995818;28;20117;-52
2023/03/09 04:54:23;;;;;;;11.60;10.90;;;;;;;;;;4997240;28;20171;-54
2023/03/09 04:56:48;;;;;;;12.80;12.02;;;;;;;;;;4994783;28;20273;-54
2023/03/09 04:59:14;;;;;;;12.27;11.57;;;;;;;;;;4999785;28;20469;-54
2023/03/09 05:01:39;;;;;;;12.10;11.40;;;;;;;;;;4995182;28;20345;-53
2023/03/09 05:04:04;;;;;;;11.70;11.00;;;;;;;;;;4986835;28;20030;-54
2023/03/09 05:06:30;;;;;;;11.75;11.05;;;;;;;;;;4995641;28;20038;-53
2023/03/09 05:08:55;;;;;;;13.68;12.88;;;;;;;;;;4996260;28;20036;-54
2023/03/09 05:11:20;;;;;;;11.48;10.77;;;;;;;;;;4996327;28;20407;-54
2023/03/09 05:13:46;;;;;;;12.68;11.98;;;;;;;;;;4992416;28;20116;-56
2023/03/09 05:16:11;;;;;;;13.35;12.55;;;;;;;;;;4993236;28;20074;-54
2023/03/09 05:18:36;;;;;;;12.75;12.05;;;;;;;;;;4992289;28;20125;-56
2023/03/09 05:21:07;;;;;;;12.00;11.30;;;;;;;;;;5013376;28;20045;-56
2023/03/09 05:23:33;;;;;;;11.88;11.18;;;;;;;;;;4996179;28;20045;-56
2023/03/09 05:26:01;;;;;;;12.07;11.38;;;;;;;;;;4993738;28;20415;-53
2023/03/09 05:28:27;;;;;;;13.32;12.52;;;;;;;;;;4995801;28;20094;-55
2023/03/09 05:30:53;;;;;;;11.70;11.00;;;;;;;;;;4993541;28;20045;-56
2023/03/09 05:33:19;;;;;;;12.80;12.10;;;;;;;;;;4992543;28;20027;-54
2023/03/09 05:35:44;;;;;;;12.90;12.18;;;;;;;;;;4992688;28;20030;-55
2023/03/09 05:38:09;;;;;;;12.18;11.48;;;;;;;;;;4999519;28;20662;-55
2023/03/09 05:40:35;;;;;;;12.98;12.07;;;;;;;;;;4994658;28;20365;-55
2023/03/09 05:43:01;;;;;;;11.98;11.27;;;;;;;;;;4996157;28;20120;-55
2023/03/09 05:45:26;;;;;;;11.63;10.93;;;;;;;;;;4994913;28;20038;-54
2023/03/09 05:47:52;;;;;;;11.82;11.13;;;;;;;;;;4996178;28;20088;-55
2023/03/09 05:50:17;;;;;;;13.90;13.10;;;;;;;;;;4994763;28;20487;-55
2023/03/09 05:52:43;;;;;;;13.07;12.32;;;;;;;;;;4993010;28;20030;-55
2023/03/09 05:55:09;;;;;;;11.95;11.25;;;;;;;;;;4993320;28;20065;-53
2023/03/09 05:57:34;;;;;;;13.98;13.18;;;;;;;;;;4995235;28;20045;-56
2023/03/09 06:00:00;;;;;;;12.77;12.02;;;;;;;;;;4993508;28;20530;-54
2023/03/09 06:02:26;;;;;;;13.48;12.60;;;;;;;;;;4992693;28;20080;-57
2023/03/09 06:04:51;;;;;;;13.45;12.65;;;;;;;;;;4994088;28;20451;-55
2023/03/09 06:07:17;;;;;;;13.75;12.95;;;;;;;;;;4993354;28;20046;-54
2023/03/09 06:09:44;;;;;;;13.45;12.65;;;;;;;;;;4991636;28;20030;-55
2023/03/09 06:12:09;;;;;;;13.52;12.73;;;;;;;;;;4991781;28;20128;-56
2023/03/09 06:14:35;;;;;;;13.18;12.38;;;;;;;;;;4992007;28;20105;-50
2023/03/09 06:17:01;;;;;;;15.23;14.05;;;;;;;;;;4998193;28;20030;-56
2023/03/09 06:19:26;;;;;;;13.30;12.50;;;;;;;;;;4990586;28;20041;-56
2023/03/09 06:21:52;;;;;;;13.75;12.95;;;;;;;;;;4993379;28;20037;-55
2023/03/09 06:24:18;;;;;;;12.77;12.05;;;;;;;;;;4991458;28;20140;-52
2023/03/09 06:26:43;;;;;;;13.60;12.80;;;;;;;;;;4991540;28;20030;-49
2023/03/09 06:29:08;;;;;;;12.32;11.63;;;;;;;;;;4992258;28;20124;-49
2023/03/09 06:31:34;;;;;;;12.95;12.13;;;;;;;;;;4993598;28;20030;-49
2023/03/09 06:33:59;;;;;;;12.98;12.23;;;;;;;;;;4992876;28;20145;-51
2023/03/09 06:36:25;;;;;;;13.27;12.13;;;;;;;;;;4994583;28;20781;-49
2023/03/09 06:38:50;;;;;;;13.23;12.43;;;;;;;;;;4993705;28;20512;-49
2023/03/09 06:41:15;;;;;;;12.20;11.50;;;;;;;;;;4991923;28;20052;-50
2023/03/09 06:43:42;;;;;;;12.38;11.68;;;;;;;;;;4986734;28;20069;-49
2023/03/09 06:46:08;;;;;;;13.80;13.00;;;;;;;;;;4991178;28;20042;-49
2023/03/09 06:48:34;;;;;;;13.32;12.52;;;;;;;;;;4995987;28;20046;-49
2023/03/09 06:50:59;;;;;;;12.77;12.00;;;;;;;;;;4993345;28;20034;-49
2023/03/09 06:53:24;;;;;;;12.88;11.85;;;;;;;;;;4992415;28;20251;-48
2023/03/09 06:55:50;;;;;;;13.30;12.50;;;;;;;;;;4995610;28;20030;-48
2023/03/09 06:58:15;;;;;;;12.98;12.20;;;;;;;;;;4991744;28;20565;-49
2023/03/09 07:00:43;;;;;;;12.75;11.98;;;;;;;;;;4994836;28;20409;-51
2023/03/09 07:03:15;;;;;;;13.77;12.88;;;;;;;;;;5008218;28;20076;-49
2023/03/09 07:05:41;;;;;;;23.90;12.40;;;;;;;;;;4994103;28;20399;-50
2023/03/09 07:08:06;;;;;;;13.65;12.85;;;;;;;;;;4993189;28;20128;-50
2023/03/09 07:10:31;;;;;;;14.77;13.88;;;;;;;;;;4995510;28;20042;-52
2023/03/09 07:12:57;;;;;;;12.93;12.13;;;;;;;;;;4992181;28;20045;-50
2023/03/09 07:15:22;;;;;;;14.27;13.48;;;;;;;;;;4991263;28;20585;-47
2023/03/09 07:17:47;;;;;;;14.52;13.20;;;;;;;;;;4991297;28;20116;-53
2023/03/09 07:20:13;;;;;;;13.40;12.60;;;;;;;;;;4987926;28;20034;-50
2023/03/09 07:22:38;;;;;;;14.52;13.73;;;;;;;;;;4994654;28;20038;-51
2023/03/09 07:25:04;;;;;;;13.82;13.02;;;;;;;;;;4996727;28;20052;-51
2023/03/09 07:27:30;;;;;;;15.65;14.65;;;;;;;;;;4996386;28;20041;-51
2023/03/09 07:29:56;;;;;;;15.20;14.10;;;;;;;;;;4995560;28;20125;-49
2023/03/09 07:32:22;;;;;;;14.65;13.80;;;;;;;;;;4995854;28;20085;-49
2023/03/09 07:34:47;;;;;;;12.95;12.15;;;;;;;;;;4990983;28;20026;-47
2023/03/09 07:37:13;;;;;;;13.93;13.13;;;;;;;;;;4990706;28;20585;-48
2023/03/09 07:39:38;;;;;;;15.52;14.02;;;;;;;;;;4997509;28;20507;-48
2023/03/09 07:42:04;;;;;;;14.85;13.95;;;;;;;;;;4998971;28;20037;-48
2023/03/09 07:44:29;;;;;;;14.77;13.90;;;;;;;;;;4996691;28;20034;-48
2023/03/09 07:46:55;;;;;;;15.20;14.10;;;;;;;;;;5003369;28;20030;-50
2023/03/09 07:49:20;;;;;;;15.00;14.00;;;;;;;;;;4998781;28;20038;-49
2023/03/09 07:51:46;;;;;;;14.70;13.70;;;;;;;;;;4997761;28;20709;-48
2023/03/09 07:54:11;;;;;;;14.18;13.38;;;;;;;;;;4996971;28;20695;-47
2023/03/09 07:56:37;;;;;;;14.55;13.45;;;;;;;;;;4989237;28;20033;-47
2023/03/09 07:59:03;;;;;;;15.13;14.15;;;;;;;;;;4996280;28;20044;-48
2023/03/09 08:01:29;;;;;;;15.48;14.57;;;;;;;;;;4996657;28;20116;-50
2023/03/09 08:03:54;;;;;;;15.25;14.38;;;;;;;;;;4996829;28;20120;-47
2023/03/09 08:06:20;;;;;;;14.13;13.32;;;;;;;;;;5013922;28;20396;-50
2023/03/09 08:08:46;;;;;;;15.32;14.43;;;;;;;;;;4998006;28;20577;-49
2023/03/09 08:11:12;;;;;;;13.82;13.02;;;;;;;;;;4994993;28;20058;-47
2023/03/09 08:13:39;;;;;;;14.23;13.43;;;;;;;;;;4997736;28;20076;-49
2023/03/09 08:16:06;;;;;;;14.57;13.77;;;;;;;;;;4996383;28;20022;-52
2023/03/09 08:18:32;;;;;;;14.10;13.30;;;;;;;;;;4995254;28;20366;-48
2023/03/09 08:21:09;;;;;;;12.77;11.98;;;;;;;;;;4997578;28;20566;-53
2023/03/09 08:23:37;;;;;;;12.82;12.10;;;;;;;;;;4998314;28;20044;-48
2023/03/09 08:26:03;;;;;;;12.77;12.02;;;;;;;;;;4997866;28;20112;-48
2023/03/09 08:28:29;;;;;;;12.68;11.98;;;;;;;;;;4996488;28;21345;-49
2023/03/09 08:30:54;;;;;;;12.45;11.75;;;;;;;;;;5000991;28;20262;-49
2023/03/09 08:33:20;;;;;;;13.05;12.25;;;;;;;;;;4998681;28;20100;-49
2023/03/09 08:35:46;;;;;;;12.27;11.57;;;;;;;;;;5003231;28;20037;-49
2023/03/09 08:38:11;;;;;;;12.63;11.82;;;;;;;;;;4995045;28;20038;-50
2023/03/09 08:40:38;;;;;;;12.48;11.77;;;;;;;;;;5001056;28;20456;-52
2023/03/09 08:43:03;;;;;;;12.90;12.18;;;;;;;;;;4996619;28;20456;-49
2023/03/09 08:45:29;;;;;;;11.85;11.10;;;;;;;;;;4995045;28;20042;-49
2023/03/09 08:47:54;;;;;;;11.60;10.90;;;;;;;;;;4996443;28;20388;-51
2023/03/09 08:50:19;;;;;;;13.05;12.25;;;;;;;;;;4996317;28;20116;-52
2023/03/09 08:52:45;;;;;;;12.80;12.05;;;;;;;;;;4998398;28;20198;-52
2023/03/09 08:55:11;;;;;;;11.77;11.07;;;;;;;;;;4996916;28;20057;-50
2023/03/09 08:57:37;;;;;;;11.60;10.90;;;;;;;;;;4997610;28;20042;-50
2023/03/09 09:00:04;;;;;;;11.30;10.60;;;;;;;;;;4994811;28;20025;-52
2023/03/09 09:02:30;;;;;;;13.27;12.45;;;;;;;;;;4995815;28;20046;-49
2023/03/09 09:04:55;;;;;;;12.77;11.60;;;;;;;;;;4996752;28;20435;-50
2023/03/09 09:07:21;;;;;;;11.63;10.85;;;;;;;;;;4996975;28;20080;-52
2023/03/09 09:09:46;;;;;;;12.60;11.90;;;;;;;;;;4994330;28;20042;-50
2023/03/09 09:12:12;;;;;;;11.93;11.23;;;;;;;;;;4994722;28;20444;-47
2023/03/09 09:14:38;;;;;;;13.65;12.75;;;;;;;;;;4995939;28;20103;-50
2023/03/09 09:17:06;;;;;;;12.52;11.82;;;;;;;;;;4994425;28;20628;-48
2023/03/09 09:19:32;;;;;;;13.35;12.55;;;;;;;;;;4993498;28;20480;-51
2023/03/09 09:21:59;;;;;;;13.75;12.95;;;;;;;;;;4994199;28;20607;-50
2023/03/09 09:24:25;;;;;;;12.88;12.13;;;;;;;;;;4997173;28;20060;-49
2023/03/09 09:26:53;;;;;;;22.70;13.05;;;;;;;;;;4994538;28;20037;-52
2023/03/09 09:29:19;;;;;;;12.02;11.32;;;;;;;;;;4997422;28;20379;-49
2023/03/09 09:31:44;;;;;;;14.60;13.70;;;;;;;;;;4997528;28;20037;-50
2023/03/09 09:34:09;;;;;;;13.93;13.05;;;;;;;;;;4994266;28;20042;-52
2023/03/09 09:36:35;;;;;;;13.93;13.13;;;;;;;;;;4992045;28;20029;-51
2023/03/09 09:39:01;;;;;;;13.38;12.57;;;;;;;;;;4997116;28;20517;-50
2023/03/09 09:41:38;;;;;;;15.02;14.15;;;;;;;;;;4993692;28;20042;-50
2023/03/09 09:44:07;;;;;;;14.23;13.20;;;;;;;;;;4995048;28;20068;-47
2023/03/09 09:46:35;;;;;;;13.75;12.95;;;;;;;;;;4992652;28;20062;-51
2023/03/09 09:49:01;;;;;;;13.52;12.73;;;;;;;;;;4993759;28;20035;-51
2023/03/09 09:51:57;;;;;;;15.05;14.15;;;;;;;;;;4996196;28;20053;-49
2023/03/09 09:54:48;;;;;;;13.23;12.45;;;;;;;;;;4994909;28;20454;-48
2023/03/09 09:57:20;;;;;;;13.25;12.45;;;;;;;;;;4995986;28;20208;-50
2023/03/09 09:59:57;;;;;;;13.95;13.15;;;;;;;;;;4987164;28;20029;-50
2023/03/09 10:02:41;;;;;;;14.85;14.02;;;;;;;;;;4987844;28;20116;-48
2023/03/09 10:05:39;;;;;;;14.98;14.13;;;;;;;;;;4994995;28;20038;-51
2023/03/09 10:08:37;;;;;;;15.82;14.93;;;;;;;;;;4992073;28;20038;-49
2023/03/09 10:11:11;;;;;;;15.07;14.25;;;;;;;;;;4996800;28;20053;-51
2023/03/09 10:13:47;;;;;;;15.45;14.57;;;;;;;;;;4995828;28;20030;-52
2023/03/09 10:16:23;;;;;;;17.00;15.63;;;;;;;;;;4991888;28;20117;-51
2023/03/09 10:18:57;;;;;;;17.23;15.82;;;;;;;;;;4996223;28;20038;-52
2023/03/09 10:21:27;;;;;;;15.73;14.82;;;;;;;;;;4992953;28;20077;-51
2023/03/09 10:23:53;;;;;;;15.65;14.75;;;;;;;;;;4992449;28;20055;-50
2023/03/09 10:26:32;;;;;;;15.63;14.73;;;;;;;;;;4994918;28;20054;-51
2023/03/09 10:29:03;;;;;;;15.60;14.70;;;;;;;;;;4994678;28;20132;-48
2023/03/09 10:32:01;;;;;;;14.43;13.50;;;;;;;;;;4996034;28;20075;-49
2023/03/09 10:34:27;;;;;;;15.13;14.20;;;;;;;;;;5010633;28;20117;-50
2023/03/09 10:36:58;;;;;;;14.50;13.70;;;;;;;;;;4996929;28;20108;-53
2023/03/09 10:39:23;;;;;;;15.65;14.75;;;;;;;;;;4992506;28;20121;-52
2023/03/09 10:41:49;;;;;;;12.80;12.10;;;;;;;;;;4997317;28;20069;-51
2023/03/09 10:44:17;;;;;;;13.50;12.70;;;;;;;;;;4993600;28;20033;-49
2023/03/09 10:46:54;;;;;;;14.57;13.77;;;;;;;;;;4995481;28;20041;-51
2023/03/09 10:49:19;;;;;;;14.90;14.05;;;;;;;;;;4994658;28;20095;-49
2023/03/09 10:51:58;;;;;;;14.00;13.10;;;;;;;;;;4993289;28;20661;-52
2023/03/09 10:54:27;;;;;;;14.38;13.57;;;;;;;;;;4996004;28;20052;-52
2023/03/09 10:56:53;;;;;;;14.45;13.65;;;;;;;;;;4993109;28;20049;-52
2023/03/09 10:59:19;;;;;;;14.73;13.93;;;;;;;;;;4989923;28;20094;-50
2023/03/09 11:01:47;;;;;;;13.88;12.98;;;;;;;;;;4992381;28;20045;-52
2023/03/09 11:04:22;;;;;;;13.65;12.85;;;;;;;;;;4992497;28;20046;-53
2023/03/09 11:06:55;;;;;;;13.85;13.05;;;;;;;;;;4995118;28;20176;-53
2023/03/09 11:09:28;;;;;;;13.90;13.10;;;;;;;;;;4992815;28;20070;-52
2023/03/09 11:12:27;;;;;;;13.77;12.98;;;;;;;;;;4989747;28;20068;-51
2023/03/09 11:15:01;;;;;;;13.23;12.43;;;;;;;;;;4997775;28;20141;-54
2023/03/09 11:17:31;;;;;;;12.85;12.05;;;;;;;;;;4993908;28;20128;-53
2023/03/09 11:20:20;;;;;;;13.02;12.25;;;;;;;;;;4997272;28;20034;-54
2023/03/09 11:22:50;;;;;;;13.25;12.45;;;;;;;;;;4997964;28;20041;-52
2023/03/09 11:25:39;;;;;;;12.73;12.02;;;;;;;;;;4994862;28;20038;-50
2023/03/09 11:28:15;;;;;;;13.65;12.85;;;;;;;;;;4996472;28;20030;-54
2023/03/09 11:30:41;;;;;;;13.55;12.65;;;;;;;;;;4993365;28;20675;-55
2023/03/09 11:33:13;;;;;;;12.10;11.40;;;;;;;;;;4995337;28;20127;-48
2023/03/09 11:35:38;;;;;;;13.52;12.63;;;;;;;;;;5000721;28;20064;-52
2023/03/09 11:38:12;;;;;;;12.10;11.35;;;;;;;;;;4994741;28;20527;-49
2023/03/09 11:40:39;;;;;;;12.23;11.50;;;;;;;;;;4998218;28;20038;-51
2023/03/09 11:43:16;;;;;;;13.13;12.27;;;;;;;;;;4995119;28;20026;-52
2023/03/09 11:45:42;;;;;;;12.43;11.73;;;;;;;;;;4999158;28;20648;-53
2023/03/09 11:48:21;;;;;;;12.30;11.55;;;;;;;;;;4994552;28;20125;-55
2023/03/09 11:51:09;;;;;;;11.82;11.13;;;;;;;;;;4996407;28;20037;-52
2023/03/09 11:53:38;;;;;;;12.10;11.40;;;;;;;;;;4995743;28;20058;-53
2023/03/09 11:56:33;;;;;;;11.90;11.20;;;;;;;;;;4997267;28;20034;-52
2023/03/09 11:59:16;;;;;;;12.35;11.55;;;;;;;;;;4997668;28;20038;-50
2023/03/09 12:01:52;;;;;;;12.73;12.02;;;;;;;;;;5010228;28;20409;-50
2023/03/09 12:04:18;;;;;;;11.35;10.65;;;;;;;;;;4995922;28;20057;-50
2023/03/09 12:06:53;;;;;;;12.63;11.93;;;;;;;;;;4997047;28;20034;-50
2023/03/09 12:09:47;;;;;;;12.93;12.13;;;;;;;;;;5004971;28;20042;-49
2023/03/09 12:12:33;;;;;;;11.27;10.57;;;;;;;;;;4996390;28;20034;-52
2023/03/09 12:15:12;;;;;;;12.07;11.23;;;;;;;;;;4999291;28;20120;-52
2023/03/09 12:17:50;;;;;;;12.70;11.93;;;;;;;;;;4994867;28;20045;-52
2023/03/09 12:20:22;;;;;;;11.80;11.10;;;;;;;;;;4996797;28;20096;-50
2023/03/09 12:22:48;;;;;;;13.27;12.48;;;;;;;;;;4997417;28;20030;-54
2023/03/09 12:25:22;;;;;;;12.32;11.52;;;;;;;;;;4993519;28;20452;-53
2023/03/09 12:28:21;;;;;;;11.52;10.82;;;;;;;;;;4994100;28;20040;-49
2023/03/09 12:31:05;;;;;;;11.95;11.25;;;;;;;;;;4997421;28;20049;-52
2023/03/09 12:33:45;;;;;;;11.35;10.65;;;;;;;;;;4994009;28;20125;-51
2023/03/09 12:36:26;;;;;;;11.23;10.52;;;;;;;;;;4991780;28;20145;-49
2023/03/09 12:39:27;;;;;;;12.15;11.25;;;;;;;;;;4996712;28;20025;-54
2023/03/09 12:42:02;;;;;;;12.82;12.02;;;;;;;;;;4996450;28;20138;-54
2023/03/09 12:44:43;;;;;;;11.90;11.20;;;;;;;;;;5000419;28;20041;-55
2023/03/09 12:47:35;;;;;;;12.63;11.82;;;;;;;;;;4997152;28;20037;-54
2023/03/09 12:50:02;;;;;;;13.02;12.27;;;;;;;;;;4974009;28;20050;-50
2023/03/09 12:52:28;;;;;;;13.52;12.73;;;;;;;;;;4991683;28;20464;-54
2023/03/09 12:54:56;;;;;;;14.05;13.25;;;;;;;;;;4994561;28;20087;-54
2023/03/09 12:57:21;;;;;;;14.50;13.70;;;;;;;;;;4995456;28;20104;-53
2023/03/09 12:59:49;;;;;;;14.27;13.48;;;;;;;;;;4995524;28;20030;-55
2023/03/09 13:02:24;;;;;;;14.32;13.45;;;;;;;;;;4995489;28;20100;-55
2023/03/09 13:05:26;;;;;;;14.43;13.48;;;;;;;;;;4995036;28;20034;-50
2023/03/09 13:08:17;;;;;;;13.23;12.40;;;;;;;;;;4993275;28;20045;-48
2023/03/09 13:10:43;;;;;;;13.65;12.55;;;;;;;;;;4995027;28;20049;-50
2023/03/09 13:13:30;;;;;;;14.05;13.25;;;;;;;;;;5010066;28;20187;-51
2023/03/09 13:16:36;;;;;;;14.00;13.13;;;;;;;;;;4995507;28;20030;-51
2023/03/09 13:19:14;;;;;;;12.70;12.00;;;;;;;;;;4995548;28;20041;-50
2023/03/09 13:21:46;;;;;;;15.10;14.25;;;;;;;;;;4994884;28;20393;-50
2023/03/09 13:24:38;;;;;;;14.15;13.35;;;;;;;;;;4994292;28;20042;-54
2023/03/09 13:27:06;;;;;;;13.45;12.60;;;;;;;;;;4994853;28;20118;-55
2023/03/09 13:29:33;;;;;;;12.52;11.73;;;;;;;;;;4994193;28;20045;-55
2023/03/09 13:31:58;;;;;;;12.27;11.57;;;;;;;;;;4994735;28;20464;-55
2023/03/09 13:34:28;;;;;;;13.20;12.40;;;;;;;;;;4996788;28;20088;-49
2023/03/09 13:37:00;;;;;;;14.55;13.68;;;;;;;;;;4991435;28;20026;-52
2023/03/09 13:39:25;;;;;;;14.63;13.77;;;;;;;;;;5011825;28;20112;-48
2023/03/09 13:41:52;;;;;;;14.18;13.27;;;;;;;;;;4993468;28;20965;-53
2023/03/09 13:44:20;;;;;;;15.40;14.50;;;;;;;;;;4993316;28;20041;-54
2023/03/09 13:46:47;;;;;;;13.48;12.68;;;;;;;;;;4995256;28;20034;-55
2023/03/09 13:49:28;;;;;;;13.25;12.45;;;;;;;;;;4995555;28;20558;-54
2023/03/09 13:52:13;;;;;;;12.83;11.70;;;;;;;;;;5008542;28;20041;-54
2023/03/09 13:54:54;;;;;;;15.00;14.10;;;;;;;;;;4991630;28;20315;-52
2023/03/09 13:57:30;;;;;;;13.57;12.77;;;;;;;;;;4994574;28;20034;-53
2023/03/09 13:59:57;;;;;;;15.65;14.75;;;;;;;;;;4993505;28;20038;-55
2023/03/09 14:02:25;;;;;;;13.82;12.82;;;;;;;;;;4992480;28;20034;-50
2023/03/09 14:05:14;;;;;;;14.65;13.80;;;;;;;;;;4995325;28;20068;-54
2023/03/09 14:07:47;;;;;;;12.98;12.18;;;;;;;;;;4988845;28;20136;-53
2023/03/09 14:10:24;;;;;;;12.32;11.63;;;;;;;;;;4998586;28;20037;-52
2023/03/09 14:12:55;;;;;;;12.43;11.73;;;;;;;;;;4995376;28;20048;-51
2023/03/09 14:15:21;;;;;;;12.80;12.10;;;;;;;;;;4992164;28;20078;-53
2023/03/09 14:17:48;;;;;;;13.93;12.52;;;;;;;;;;4995826;28;20133;-54
2023/03/09 14:20:22;;;;;;;12.82;12.07;;;;;;;;;;4993057;28;20030;-50
2023/03/09 14:22:49;;;;;;;12.20;11.50;;;;;;;;;;4992903;28;20681;-54
2023/03/09 14:25:30;;;;;;;14.52;13.48;;;;;;;;;;4991694;28;20385;-51
2023/03/09 14:27:55;;;;;;;12.38;11.68;;;;;;;;;;4992571;28;20038;-50
2023/03/09 14:30:27;;;;;;;13.27;12.48;;;;;;;;;;4990145;28;20092;-54
2023/03/09 14:33:23;;;;;;;14.55;13.55;;;;;;;;;;4997020;28;20048;-49